Time;durP1;ratioP1;P1;durP2;ratioP2;P2;SDS_P1;SDS_P2;PMS_P1;PMS_P2;Temp;Humidity;BMP_temperature;BMP_pressure;BME280_temperature;BME280_humidity;BME280_pressure;Samples;Min_cycle;Max_cycle;Signal;HPM_P1;HPM_P2
2023/02/10 00:01:47;;;;;;;21.17;17.43;;;0.80;74.00;;;;;;5029109;28;20205;-87
2023/02/10 00:04:14;;;;;;;23.10;17.73;;;0.80;74.30;;;;;;5036053;28;20579;-88
2023/02/10 00:06:40;;;;;;;22.33;17.70;;;0.80;74.30;;;;;;5028625;28;20199;-87
2023/02/10 00:09:07;;;;;;;22.00;17.63;;;0.80;74.20;;;;;;5036848;28;20251;-87
2023/02/10 00:14:18;;;;;;;24.00;17.93;;;0.80;73.40;;;;;;5036015;28;20183;-88
2023/02/10 00:16:44;;;;;;;22.37;18.77;;;0.80;73.30;;;;;;5034338;28;20189;-88
2023/02/10 00:19:10;;;;;;;20.53;17.57;;;0.70;73.60;;;;;;5036329;28;20191;-87
2023/02/10 00:21:36;;;;;;;22.17;17.03;;;0.70;73.20;;;;;;5035196;28;20229;-86
2023/02/10 00:24:02;;;;;;;21.43;17.23;;;0.60;74.40;;;;;;5036980;28;20776;-86
2023/02/10 00:26:29;;;;;;;21.17;17.17;;;0.60;74.50;;;;;;5036521;28;20220;-88
2023/02/10 00:28:54;;;;;;;23.10;17.20;;;0.50;75.20;;;;;;5035411;28;20188;-86
2023/02/10 00:31:21;;;;;;;24.17;18.07;;;0.50;74.70;;;;;;5035404;28;20225;-87
2023/02/10 00:33:47;;;;;;;22.37;17.43;;;0.40;75.50;;;;;;5035326;28;20693;-87
2023/02/10 00:36:15;;;;;;;22.60;17.43;;;0.40;76.10;;;;;;5035134;28;20201;-86
2023/02/10 00:38:41;;;;;;;20.30;17.03;;;0.40;76.20;;;;;;5036846;28;20188;-87
2023/02/10 00:41:10;;;;;;;21.57;17.57;;;0.40;75.80;;;;;;5036181;28;20578;-86
2023/02/10 00:43:36;;;;;;;22.53;17.70;;;0.40;75.40;;;;;;5038420;28;20269;-86
2023/02/10 00:46:02;;;;;;;21.30;17.67;;;0.40;75.60;;;;;;5037289;28;20418;-86
2023/02/10 00:48:28;;;;;;;21.30;17.93;;;0.30;75.30;;;;;;5038538;28;20177;-86
2023/02/10 00:50:53;;;;;;;21.20;16.73;;;0.30;75.70;;;;;;5037401;28;20318;-87
2023/02/10 00:53:19;;;;;;;23.83;17.67;;;0.30;76.00;;;;;;5027918;28;20185;-86
2023/02/10 00:55:44;;;;;;;20.60;16.77;;;0.30;76.30;;;;;;5017427;28;20179;-87
2023/02/10 00:58:10;;;;;;;23.50;16.97;;;0.30;76.00;;;;;;5017115;28;20205;-87
2023/02/10 01:00:36;;;;;;;21.30;17.30;;;0.30;76.00;;;;;;5018198;28;20194;-87
2023/02/10 01:03:01;;;;;;;21.20;17.17;;;0.30;76.20;;;;;;5038730;28;20204;-87
2023/02/10 01:05:27;;;;;;;20.97;16.23;;;0.30;76.10;;;;;;5037953;28;20177;-87
2023/02/10 01:07:53;;;;;;;21.33;17.53;;;0.30;76.20;;;;;;5039926;28;20200;-87
2023/02/10 01:10:19;;;;;;;23.10;17.60;;;0.20;76.10;;;;;;5039880;28;20177;-87
2023/02/10 01:12:46;;;;;;;21.03;16.90;;;0.10;77.00;;;;;;5039475;28;20228;-86
2023/02/10 01:15:11;;;;;;;19.70;16.43;;;0.10;77.50;;;;;;5039641;28;20634;-89
2023/02/10 01:17:37;;;;;;;19.03;16.47;;;0.10;76.30;;;;;;5039500;28;20189;-86
2023/02/10 01:20:04;;;;;;;22.00;17.47;;;0.20;77.20;;;;;;5039099;28;20212;-87
2023/02/10 01:22:32;;;;;;;19.47;15.67;;;0.10;77.60;;;;;;5039710;28;20211;-89
2023/02/10 01:24:58;;;;;;;22.93;17.80;;;0.20;77.20;;;;;;5038014;28;20531;-86
2023/02/10 01:27:24;;;;;;;21.87;16.90;;;0.20;76.40;;;;;;5038691;28;20181;-87
2023/02/10 01:29:49;;;;;;;20.07;16.37;;;0.10;76.20;;;;;;5039177;28;20566;-86
2023/02/10 01:32:15;;;;;;;18.97;15.67;;;0.20;76.10;;;;;;5038880;28;20702;-86
2023/02/10 01:34:41;;;;;;;22.60;17.07;;;0.10;76.60;;;;;;5029945;28;20798;-86
2023/02/10 01:37:06;;;;;;;23.87;17.83;;;0.10;77.20;;;;;;5035663;28;20196;-86
2023/02/10 01:39:32;;;;;;;21.93;17.53;;;0.00;76.80;;;;;;5039012;28;20258;-87
2023/02/10 01:41:57;;;;;;;20.63;16.10;;;-0.10;77.50;;;;;;5036994;28;20201;-86
2023/02/10 01:44:23;;;;;;;22.63;17.80;;;0.00;77.60;;;;;;5036896;28;20197;-87
2023/02/10 01:46:49;;;;;;;20.57;16.83;;;-0.20;77.90;;;;;;5035757;28;20242;-86
2023/02/10 01:49:17;;;;;;;22.57;19.37;;;-0.30;79.40;;;;;;5024917;28;20201;-87
2023/02/10 01:51:49;;;;;;;22.63;18.83;;;-0.40;79.60;;;;;;5035596;28;20604;-88
2023/02/10 01:54:24;;;;;;;22.67;19.00;;;-0.50;81.00;;;;;;5035042;28;20239;-86
2023/02/10 01:56:51;;;;;;;21.70;19.00;;;-0.80;83.40;;;;;;5025751;28;20578;-86
2023/02/10 01:59:19;;;;;;;25.73;20.40;;;-0.80;85.10;;;;;;5032246;28;20181;-85
2023/02/10 02:01:45;;;;;;;24.97;19.60;;;-1.00;86.60;;;;;;5035962;28;20208;-87
2023/02/10 02:04:11;;;;;;;26.47;20.73;;;-1.10;89.00;;;;;;5035568;28;20247;-86
2023/02/10 02:06:37;;;;;;;22.17;18.13;;;-1.10;90.50;;;;;;5016875;28;20752;-87
2023/02/10 02:09:03;;;;;;;26.10;19.53;;;-1.00;91.30;;;;;;5030787;28;20354;-87
2023/02/10 02:12:06;;;;;;;28.37;18.80;;;-1.00;90.50;;;;;;5034386;28;20209;-86
2023/02/10 02:14:52;;;;;;;22.97;19.20;;;-0.90;90.00;;;;;;5039096;28;20650;-88
2023/02/10 02:17:38;;;;;;;26.43;19.60;;;-1.00;90.80;;;;;;5040034;28;20252;-85
2023/02/10 02:23:09;;;;;;;28.33;21.33;;;-1.30;94.60;;;;;;5039906;28;20191;-86
2023/02/10 02:25:59;;;;;;;27.53;20.77;;;-1.20;94.50;;;;;;5040088;28;20712;-86
2023/02/10 02:31:57;;;;;;;29.10;22.43;;;-1.00;94.40;;;;;;5037610;28;20223;-88
2023/02/10 02:34:51;;;;;;;28.30;20.93;;;-1.00;94.40;;;;;;5034836;28;21172;-87
2023/02/10 02:37:26;;;;;;;20.77;18.33;;;-0.90;94.00;;;;;;5036281;28;20264;-86
2023/02/10 02:39:55;;;;;;;27.13;20.00;;;-0.70;93.10;;;;;;5033579;28;20173;-88
2023/02/10 02:42:25;;;;;;;27.73;21.73;;;-0.60;91.90;;;;;;5035562;28;20220;-86
2023/02/10 02:44:55;;;;;;;27.83;20.87;;;-0.60;90.30;;;;;;5031909;28;20196;-87
2023/02/10 02:47:30;;;;;;;25.63;21.57;;;-0.60;89.90;;;;;;5023457;28;20718;-86
2023/02/10 02:50:10;;;;;;;30.63;23.90;;;-0.70;91.00;;;;;;5034643;28;20247;-88
2023/02/10 02:53:01;;;;;;;27.50;23.07;;;-0.90;92.20;;;;;;5034411;28;20204;-86
2023/02/10 02:55:45;;;;;;;31.90;23.97;;;-1.00;93.70;;;;;;5034722;28;20177;-86
2023/02/10 02:58:18;;;;;;;33.53;24.23;;;-1.10;94.80;;;;;;5036188;28;20257;-86
2023/02/10 03:00:46;;;;;;;30.60;24.13;;;-1.20;96.70;;;;;;5034404;28;20241;-86
2023/02/10 03:03:13;;;;;;;35.83;25.97;;;-1.20;96.10;;;;;;5033787;28;20260;-88
2023/02/10 03:05:38;;;;;;;31.87;23.43;;;-1.40;97.30;;;;;;5027392;28;20268;-87
2023/02/10 03:08:04;;;;;;;30.27;23.30;;;-1.40;98.60;;;;;;5033034;28;20300;-86
2023/02/10 03:10:30;;;;;;;32.40;24.27;;;-1.30;98.40;;;;;;5033271;28;20185;-87
2023/02/10 03:12:55;;;;;;;36.60;25.03;;;-1.30;97.60;;;;;;5033990;28;20201;-87
2023/02/10 03:15:21;;;;;;;32.87;24.00;;;-1.30;98.30;;;;;;5033302;28;20310;-86
2023/02/10 03:17:47;;;;;;;30.03;23.83;;;-1.40;97.90;;;;;;5034539;28;20216;-85
2023/02/10 03:20:13;;;;;;;31.97;25.27;;;-1.40;98.60;;;;;;5034348;28;20260;-86
2023/02/10 03:22:38;;;;;;;33.00;24.00;;;-1.30;97.90;;;;;;5034068;28;20193;-86
2023/02/10 03:25:04;;;;;;;31.60;23.57;;;-1.30;98.50;;;;;;5039440;28;20260;-86
2023/02/10 03:27:30;;;;;;;33.10;25.03;;;-1.40;97.60;;;;;;5041609;28;20619;-86
2023/02/10 03:29:56;;;;;;;30.70;24.17;;;-1.50;98.40;;;;;;5040448;28;20203;-88
2023/02/10 03:32:21;;;;;;;33.70;24.17;;;-1.60;99.50;;;;;;5041591;28;20215;-87
2023/02/10 03:34:47;;;;;;;28.17;22.37;;;-1.60;99.60;;;;;;5034449;28;20189;-88
2023/02/10 03:37:12;;;;;;;28.40;21.80;;;-1.50;99.90;;;;;;5039983;28;20181;-86
2023/02/10 03:39:38;;;;;;;31.43;23.13;;;-1.30;99.10;;;;;;5040556;28;20185;-86
2023/02/10 03:42:04;;;;;;;25.00;21.53;;;-1.30;97.30;;;;;;5034729;28;20718;-89
2023/02/10 03:44:31;;;;;;;29.80;22.67;;;-1.00;96.80;;;;;;5030322;28;20200;-88
2023/02/10 03:46:56;;;;;;;28.67;20.80;;;-1.00;95.50;;;;;;5041924;28;20188;-87
2023/02/10 03:49:22;;;;;;;28.50;22.17;;;-1.00;95.50;;;;;;5043750;28;20181;-87
2023/02/10 03:51:48;;;;;;;24.53;20.77;;;-0.90;95.50;;;;;;5042935;28;20231;-87
2023/02/10 03:54:14;;;;;;;31.37;22.63;;;-0.80;94.70;;;;;;5043200;28;20278;-87
2023/02/10 03:56:40;;;;;;;28.43;22.57;;;-0.80;94.40;;;;;;5042712;28;20832;-87
2023/02/10 03:59:06;;;;;;;31.03;23.47;;;-0.70;93.80;;;;;;5042071;28;20210;-88
2023/02/10 04:01:31;;;;;;;27.07;22.63;;;-0.70;92.80;;;;;;5042777;28;20204;-86
2023/02/10 04:03:57;;;;;;;27.27;21.63;;;-0.80;92.90;;;;;;5043082;28;20207;-88
2023/02/10 04:06:23;;;;;;;29.33;21.70;;;-0.80;93.30;;;;;;5040191;28;20286;-88
2023/02/10 04:08:49;;;;;;;30.17;23.17;;;-0.90;94.60;;;;;;5043757;28;20503;-87
2023/02/10 04:11:14;;;;;;;29.63;22.53;;;-1.00;94.90;;;;;;5042143;28;20849;-89
2023/02/10 04:13:40;;;;;;;27.37;22.60;;;-1.10;95.50;;;;;;5044492;28;20185;-87
2023/02/10 04:16:12;;;;;;;29.03;22.43;;;-1.20;96.10;;;;;;5045239;28;20184;-86
2023/02/10 04:18:38;;;;;;;26.40;22.93;;;-1.30;96.60;;;;;;5049683;28;20204;-87
2023/02/10 04:21:09;;;;;;;28.17;21.07;;;-1.40;97.90;;;;;;5052334;28;20196;-89
2023/02/10 04:23:35;;;;;;;30.97;23.70;;;-1.40;98.70;;;;;;5056954;28;20185;-89
2023/02/10 04:26:01;;;;;;;29.87;22.47;;;-1.30;98.10;;;;;;5054799;28;20646;-88
2023/02/10 04:28:27;;;;;;;28.33;23.13;;;-1.40;98.20;;;;;;5042513;28;20192;-86
2023/02/10 04:30:55;;;;;;;31.93;23.10;;;-1.40;97.80;;;;;;5040618;28;20201;-87
2023/02/10 04:33:21;;;;;;;29.93;21.70;;;-1.50;99.00;;;;;;5037846;28;20303;-87
2023/02/10 04:35:50;;;;;;;26.60;22.27;;;-1.60;99.70;;;;;;5021942;28;20186;-87
2023/02/10 04:38:17;;;;;;;34.43;24.80;;;-1.60;99.90;;;;;;5036465;28;20252;-85
2023/02/10 04:40:43;;;;;;;26.77;22.97;;;-1.60;99.90;;;;;;5021677;28;20205;-87
2023/02/10 04:43:09;;;;;;;27.60;22.37;;;-1.50;99.80;;;;;;5020987;28;20667;-86
2023/02/10 04:45:35;;;;;;;29.43;23.40;;;-1.40;98.60;;;;;;5020469;28;20261;-85
2023/02/10 04:48:01;;;;;;;28.17;22.40;;;-1.40;98.50;;;;;;5021679;28;20210;-86
2023/02/10 04:50:27;;;;;;;31.37;22.43;;;-1.50;98.90;;;;;;5038783;28;20189;-85
2023/02/10 04:52:52;;;;;;;28.07;22.50;;;-1.50;98.60;;;;;;5039268;28;20223;-87
2023/02/10 04:55:18;;;;;;;32.17;22.83;;;-1.60;98.50;;;;;;5037728;28;20260;-85
2023/02/10 04:57:44;;;;;;;31.57;22.60;;;-1.70;99.90;;;;;;5038028;28;20185;-85
2023/02/10 05:00:10;;;;;;;31.23;23.83;;;-1.70;99.50;;;;;;5037098;28;20177;-88
2023/02/10 05:02:36;;;;;;;30.07;23.67;;;-1.70;99.40;;;;;;5037097;28;20281;-86
2023/02/10 05:05:02;;;;;;;29.30;22.93;;;-1.70;99.70;;;;;;5032917;28;20181;-86
2023/02/10 05:07:27;;;;;;;26.47;21.83;;;-1.70;99.40;;;;;;5018528;28;20178;-85
2023/02/10 05:09:53;;;;;;;24.60;20.90;;;-1.60;99.70;;;;;;5018056;28;20186;-86
2023/02/10 05:12:19;;;;;;;29.13;22.73;;;-1.50;99.20;;;;;;5019530;28;20233;-86
2023/02/10 05:14:44;;;;;;;26.40;21.03;;;-1.30;96.80;;;;;;5016960;28;20185;-87
2023/02/10 05:17:10;;;;;;;27.70;21.30;;;-1.30;97.20;;;;;;5017664;28;20174;-86
2023/02/10 05:19:35;;;;;;;26.10;20.23;;;-1.10;95.80;;;;;;5027225;28;20577;-85
2023/02/10 05:22:01;;;;;;;26.60;19.57;;;-1.10;96.10;;;;;;5035732;28;20196;-85
2023/02/10 05:24:27;;;;;;;25.73;21.77;;;-0.90;94.80;;;;;;5034955;28;20193;-86
2023/02/10 05:26:52;;;;;;;26.20;20.83;;;-0.90;93.80;;;;;;5033337;28;20206;-87
2023/02/10 05:29:18;;;;;;;27.50;20.80;;;-0.80;93.40;;;;;;5033704;28;20185;-86
2023/02/10 05:31:43;;;;;;;25.87;21.30;;;-0.80;92.70;;;;;;5029767;28;20205;-85
2023/02/10 05:34:09;;;;;;;28.40;20.13;;;-0.90;92.90;;;;;;5031372;28;20189;-85
2023/02/10 05:36:34;;;;;;;25.53;20.67;;;-0.80;93.10;;;;;;5026489;28;20181;-87
2023/02/10 05:41:44;;;;;;;27.67;22.10;;;-0.90;92.80;;;;;;5037166;28;20334;-85
2023/02/10 05:44:10;;;;;;;25.73;22.73;;;-1.00;93.70;;;;;;5037044;28;20231;-85
2023/02/10 05:46:35;;;;;;;29.70;22.10;;;-1.00;94.30;;;;;;5035571;28;20201;-85
2023/02/10 05:49:01;;;;;;;29.47;21.57;;;-0.90;93.80;;;;;;5034720;28;20349;-85
2023/02/10 05:51:27;;;;;;;31.20;21.57;;;-0.90;93.60;;;;;;5034287;28;20216;-83
2023/02/10 05:53:53;;;;;;;31.13;22.40;;;-1.00;91.90;;;;;;5035334;28;20181;-85
2023/02/10 05:56:19;;;;;;;28.73;21.67;;;-1.10;93.40;;;;;;5031776;28;20601;-85
2023/02/10 05:58:45;;;;;;;27.03;21.73;;;-1.10;93.90;;;;;;5032619;28;20275;-85
2023/02/10 06:01:11;;;;;;;28.87;22.00;;;-1.00;93.70;;;;;;5008338;28;20240;-86
2023/02/10 06:03:37;;;;;;;26.70;21.33;;;-1.00;92.60;;;;;;5012545;28;20220;-84
2023/02/10 06:06:03;;;;;;;27.60;21.27;;;-1.00;93.20;;;;;;5015313;28;20212;-84
2023/02/10 06:08:29;;;;;;;28.30;21.50;;;-0.90;92.90;;;;;;5013999;28;20581;-85
2023/02/10 06:10:54;;;;;;;26.60;22.10;;;-0.90;92.90;;;;;;5020951;28;20209;-86
2023/02/10 06:13:20;;;;;;;28.43;23.40;;;-1.00;91.30;;;;;;5020411;28;20571;-85
2023/02/10 06:15:46;;;;;;;33.87;24.33;;;-1.30;92.30;;;;;;5018151;28;20185;-84
2023/02/10 06:18:11;;;;;;;32.83;24.00;;;-1.60;96.00;;;;;;5017002;28;20216;-86
2023/02/10 06:20:37;;;;;;;33.37;25.97;;;-1.90;99.00;;;;;;5015416;28;20196;-85
2023/02/10 06:23:03;;;;;;;31.70;25.83;;;-2.00;99.90;;;;;;5013613;28;20579;-85
2023/02/10 06:25:28;;;;;;;30.00;24.67;;;-2.00;99.90;;;;;;5019991;28;20204;-86
2023/02/10 06:27:54;;;;;;;30.10;22.13;;;-2.10;99.90;;;;;;5014598;28;20190;-86
2023/02/10 06:30:20;;;;;;;29.17;23.40;;;-1.90;99.90;;;;;;5007413;28;20203;-86
2023/02/10 06:32:45;;;;;;;31.77;23.60;;;-1.70;99.90;;;;;;5013626;28;20695;-87
2023/02/10 06:35:11;;;;;;;32.90;25.23;;;-1.70;99.90;;;;;;5016904;28;20178;-85
2023/02/10 06:37:37;;;;;;;32.13;25.77;;;-1.80;99.50;;;;;;5018355;28;20185;-86
2023/02/10 06:40:04;;;;;;;35.17;27.20;;;-1.90;99.90;;;;;;5016856;28;20197;-87
2023/02/10 06:42:30;;;;;;;33.80;26.97;;;-1.90;99.90;;;;;;5020068;28;20366;-87
2023/02/10 06:44:56;;;;;;;30.07;25.27;;;-2.00;99.90;;;;;;5033818;28;20196;-84
2023/02/10 06:47:22;;;;;;;31.10;24.07;;;-2.00;99.90;;;;;;5031646;28;20671;-85
2023/02/10 06:49:47;;;;;;;30.83;23.73;;;-1.90;99.90;;;;;;5032651;28;20172;-83
2023/02/10 06:52:13;;;;;;;30.93;22.90;;;-1.60;99.90;;;;;;5036510;28;20274;-86
2023/02/10 06:54:39;;;;;;;36.83;25.53;;;-1.50;99.80;;;;;;5033472;28;20219;-87
2023/02/10 06:57:04;;;;;;;33.27;26.63;;;-1.50;98.90;;;;;;5021192;28;20181;-86
2023/02/10 06:59:32;;;;;;;32.83;25.77;;;-1.60;98.70;;;;;;5015003;28;20311;-85
2023/02/10 07:02:00;;;;;;;30.20;25.87;;;-1.60;99.10;;;;;;5032885;28;20213;-84
2023/02/10 07:04:28;;;;;;;29.43;23.80;;;-1.70;99.20;;;;;;5035186;28;20184;-88
2023/02/10 07:06:53;;;;;;;30.33;23.80;;;-1.70;99.70;;;;;;5034317;28;20397;-85
2023/02/10 07:09:19;;;;;;;35.33;25.93;;;-1.70;99.30;;;;;;5035788;28;20177;-86
2023/02/10 07:11:45;;;;;;;31.33;25.10;;;-1.80;99.00;;;;;;5037252;28;20682;-84
2023/02/10 07:14:10;;;;;;;30.77;24.40;;;-1.80;99.90;;;;;;5035084;28;20188;-86
2023/02/10 07:16:36;;;;;;;31.23;24.73;;;-1.90;99.90;;;;;;5036194;28;20210;-86
2023/02/10 07:19:02;;;;;;;29.03;23.70;;;-2.00;99.90;;;;;;5032773;28;20181;-87
2023/02/10 07:21:28;;;;;;;33.53;24.10;;;-2.10;99.90;;;;;;5033029;28;20205;-85
2023/02/10 07:23:54;;;;;;;34.87;24.90;;;-2.20;99.90;;;;;;5032956;28;20192;-85
2023/02/10 07:26:19;;;;;;;28.17;24.70;;;-2.20;99.90;;;;;;5030305;28;20192;-86
2023/02/10 07:28:46;;;;;;;35.03;26.47;;;-2.20;99.90;;;;;;5027096;28;20181;-85
2023/02/10 07:31:12;;;;;;;36.47;28.90;;;-2.20;99.90;;;;;;5032860;28;20208;-87
2023/02/10 07:33:38;;;;;;;32.27;26.47;;;-2.30;99.90;;;;;;5033290;28;20221;-85
2023/02/10 07:36:05;;;;;;;33.07;26.30;;;-2.30;99.90;;;;;;5013782;28;20650;-85
2023/02/10 07:38:31;;;;;;;36.80;27.83;;;-2.30;99.90;;;;;;5013868;28;20192;-85
2023/02/10 07:40:58;;;;;;;33.90;26.07;;;-2.20;99.90;;;;;;5013837;28;20533;-85
2023/02/10 07:43:23;;;;;;;33.43;26.97;;;-2.20;99.90;;;;;;5015041;28;20185;-85
2023/02/10 07:45:52;;;;;;;34.83;27.33;;;-2.20;99.90;;;;;;5014155;28;20236;-85
2023/02/10 07:48:18;;;;;;;28.83;24.87;;;-2.10;99.90;;;;;;5016654;28;20205;-85
2023/02/10 07:50:46;;;;;;;36.33;26.20;;;-2.10;99.90;;;;;;5033426;28;20262;-85
2023/02/10 07:53:11;;;;;;;40.83;28.27;;;-2.00;99.90;;;;;;5033890;28;20231;-84
2023/02/10 07:55:38;;;;;;;34.87;26.07;;;-2.00;99.90;;;;;;5033724;28;20669;-87
2023/02/10 07:58:05;;;;;;;34.97;27.27;;;-2.10;99.90;;;;;;5014754;28;20186;-87
2023/02/10 08:00:30;;;;;;;33.77;27.47;;;-2.10;99.90;;;;;;5014158;28;20699;-85
2023/02/10 08:02:56;;;;;;;34.10;27.00;;;-1.90;99.90;;;;;;5014719;28;20232;-85
2023/02/10 08:05:22;;;;;;;37.83;27.57;;;-1.90;99.90;;;;;;5024488;28;20284;-85
2023/02/10 08:07:48;;;;;;;34.93;28.00;;;-2.00;99.90;;;;;;5019436;28;20162;-86
2023/02/10 08:10:14;;;;;;;38.17;28.70;;;-2.00;99.90;;;;;;5019674;28;20184;-86
2023/02/10 08:12:39;;;;;;;41.80;29.63;;;-1.80;99.90;;;;;;5016780;28;20221;-85
2023/02/10 08:15:07;;;;;;;38.23;28.47;;;-1.80;99.90;;;;;;5017458;28;20193;-84
2023/02/10 08:17:33;;;;;;;38.70;29.97;;;-1.80;99.90;;;;;;5018288;28;20265;-84
2023/02/10 08:19:59;;;;;;;39.57;29.07;;;-1.70;99.90;;;;;;5018053;28;20189;-85
2023/02/10 08:22:24;;;;;;;36.87;29.03;;;-1.60;99.90;;;;;;5037604;28;20893;-86
2023/02/10 08:24:50;;;;;;;38.97;28.90;;;-1.60;99.90;;;;;;5023930;28;20710;-85
2023/02/10 08:27:16;;;;;;;39.47;28.03;;;-1.60;99.90;;;;;;5019375;28;20180;-85
2023/02/10 08:29:42;;;;;;;41.03;30.47;;;-1.50;99.90;;;;;;5017977;28;20201;-86
2023/02/10 08:32:07;;;;;;;38.10;29.73;;;-1.50;99.90;;;;;;5019629;28;20208;-84
2023/02/10 08:34:33;;;;;;;40.67;29.90;;;-1.40;99.90;;;;;;5025603;28;20189;-85
2023/02/10 08:36:59;;;;;;;39.17;29.50;;;-1.30;99.90;;;;;;5038831;28;20253;-86
2023/02/10 08:39:27;;;;;;;38.97;31.00;;;-1.20;99.90;;;;;;5036124;28;20173;-85
2023/02/10 08:41:52;;;;;;;39.90;29.50;;;-1.20;99.90;;;;;;5039556;28;20201;-84
2023/02/10 08:44:18;;;;;;;37.70;30.00;;;-1.20;99.90;;;;;;5040993;28;20181;-84
2023/02/10 08:46:44;;;;;;;35.57;27.60;;;-1.10;99.90;;;;;;5041905;28;20705;-85
2023/02/10 08:49:09;;;;;;;36.90;29.10;;;-1.10;99.90;;;;;;5042855;28;20181;-85
2023/02/10 08:51:35;;;;;;;36.57;28.97;;;-0.90;99.90;;;;;;5043217;28;20265;-84
2023/02/10 08:54:01;;;;;;;39.03;29.17;;;-0.90;99.90;;;;;;5043490;28;20181;-85
2023/02/10 08:56:27;;;;;;;37.13;29.77;;;-0.80;99.90;;;;;;5035212;28;20186;-83
2023/02/10 08:58:53;;;;;;;31.87;27.87;;;-0.80;99.90;;;;;;5019754;28;20509;-84
2023/02/10 09:01:22;;;;;;;41.67;30.00;;;-0.80;99.90;;;;;;5019612;28;20268;-84
2023/02/10 09:03:48;;;;;;;36.77;27.43;;;-0.70;99.90;;;;;;5031138;28;20197;-84
2023/02/10 09:06:30;;;;;;;38.83;28.33;;;-0.60;99.90;;;;;;5028728;28;20241;-85
2023/02/10 09:08:56;;;;;;;38.37;28.60;;;-0.50;99.90;;;;;;5024063;28;20268;-83
2023/02/10 09:11:23;;;;;;;34.47;27.77;;;-0.40;99.90;;;;;;5040196;28;20228;-84
2023/02/10 09:13:50;;;;;;;38.33;30.13;;;-0.20;99.90;;;;;;5041331;28;20215;-85
2023/02/10 09:16:15;;;;;;;43.67;28.57;;;-0.20;99.90;;;;;;5040682;28;20181;-85
2023/02/10 09:18:41;;;;;;;36.13;27.50;;;0.00;99.90;;;;;;5038713;28;20196;-86
2023/02/10 09:21:07;;;;;;;34.37;27.20;;;0.20;99.90;;;;;;5042752;28;20181;-85
2023/02/10 09:23:33;;;;;;;35.63;29.17;;;0.30;99.90;;;;;;5047974;28;20179;-87
2023/02/10 09:26:00;;;;;;;36.67;28.50;;;0.20;99.30;;;;;;5046690;28;20201;-85
2023/02/10 09:28:27;;;;;;;40.13;31.00;;;0.20;99.90;;;;;;5047986;28;20249;-86
2023/02/10 09:30:52;;;;;;;39.23;30.17;;;0.40;99.40;;;;;;5048222;28;20205;-84
2023/02/10 09:33:18;;;;;;;36.10;29.80;;;0.40;99.60;;;;;;5047992;28;20784;-86
2023/02/10 09:35:44;;;;;;;34.80;28.60;;;0.60;99.60;;;;;;5031400;28;20201;-86
2023/02/10 09:38:11;;;;;;;34.33;27.83;;;0.90;96.20;;;;;;5031917;28;20150;-85
2023/02/10 09:40:58;;;;;;;33.20;26.57;;;1.10;93.90;;;;;;5032117;28;20256;-85
2023/02/10 09:43:43;;;;;;;35.83;27.27;;;1.20;94.20;;;;;;5033246;28;20170;-86
2023/02/10 09:46:25;;;;;;;37.80;30.67;;;1.20;94.90;;;;;;5032387;28;20258;-84
2023/02/10 09:49:12;;;;;;;44.03;28.13;;;1.30;94.80;;;;;;5047661;28;20176;-85
2023/02/10 09:52:09;;;;;;;44.13;31.57;;;1.40;92.70;;;;;;5048080;28;20216;-85
2023/02/10 09:54:36;;;;;;;38.53;29.77;;;1.50;91.40;;;;;;5045026;28;20177;-85
2023/02/10 09:57:20;;;;;;;41.43;31.33;;;1.50;90.40;;;;;;5041846;28;20173;-85
2023/02/10 09:59:49;;;;;;;35.73;29.97;;;1.40;92.90;;;;;;5046050;28;20527;-87
2023/02/10 10:02:30;;;;;;;44.27;33.93;;;1.40;95.90;;;;;;5045067;28;20243;-85
2023/02/10 10:04:59;;;;;;;43.00;32.20;;;1.70;92.10;;;;;;5040081;28;20169;-84
2023/02/10 10:07:35;;;;;;;37.53;31.50;;;1.90;92.20;;;;;;5024394;28;20444;-86
2023/02/10 10:10:20;;;;;;;40.03;32.43;;;2.00;90.90;;;;;;5025703;28;20241;-86
2023/02/10 10:12:45;;;;;;;40.63;32.43;;;2.10;89.60;;;;;;5026966;28;20389;-85
2023/02/10 10:15:18;;;;;;;38.47;31.10;;;2.30;88.70;;;;;;5040424;28;20197;-86
2023/02/10 10:18:10;;;;;;;39.13;32.60;;;2.40;87.80;;;;;;5032618;28;20264;-85
2023/02/10 10:20:45;;;;;;;37.27;30.90;;;2.50;87.60;;;;;;5041923;28;20236;-85
2023/02/10 10:23:44;;;;;;;44.43;35.10;;;2.70;86.40;;;;;;5022143;28;20177;-85
2023/02/10 10:26:38;;;;;;;40.33;33.33;;;2.50;87.30;;;;;;5017182;28;20189;-85
2023/02/10 10:29:39;;;;;;;43.33;32.47;;;2.70;84.50;;;;;;5016327;28;20192;-85
2023/02/10 10:32:30;;;;;;;38.50;31.83;;;2.80;83.30;;;;;;5031722;28;20215;-86
2023/02/10 10:34:56;;;;;;;40.70;31.80;;;2.90;83.40;;;;;;5035451;28;20174;-87
2023/02/10 10:37:24;;;;;;;45.63;33.97;;;3.10;81.90;;;;;;5025675;28;20189;-85
2023/02/10 10:39:54;;;;;;;39.90;34.10;;;3.30;80.80;;;;;;5025918;28;20266;-86
2023/02/10 10:42:29;;;;;;;37.10;30.07;;;3.30;81.00;;;;;;5024919;28;20315;-85
2023/02/10 10:45:02;;;;;;;44.40;31.70;;;3.40;79.20;;;;;;5028503;28;20379;-86
2023/02/10 10:47:27;;;;;;;37.93;30.77;;;3.80;78.40;;;;;;5042237;28;20239;-85
2023/02/10 10:49:53;;;;;;;43.10;32.73;;;3.90;75.10;;;;;;5043874;28;20588;-85
2023/02/10 10:52:31;;;;;;;38.30;31.97;;;3.90;75.60;;;;;;5042409;28;20220;-85
2023/02/10 10:54:57;;;;;;;40.90;33.30;;;4.10;75.20;;;;;;5044576;28;20157;-84
2023/02/10 10:57:26;;;;;;;38.73;31.70;;;4.10;76.70;;;;;;5044598;28;20418;-85
2023/02/10 11:00:03;;;;;;;36.40;31.30;;;4.40;73.20;;;;;;5045118;28;20185;-85
2023/02/10 11:02:29;;;;;;;36.87;32.27;;;4.50;71.90;;;;;;5042067;28;20208;-84
2023/02/10 11:05:12;;;;;;;36.40;30.37;;;4.60;69.30;;;;;;5037452;28;20189;-84
2023/02/10 11:07:39;;;;;;;38.60;31.13;;;4.60;68.10;;;;;;5022982;28;20230;-84
2023/02/10 11:10:06;;;;;;;35.10;28.73;;;4.60;67.80;;;;;;5030367;28;20192;-85
2023/02/10 11:12:37;;;;;;;37.10;31.03;;;4.50;68.10;;;;;;5034869;28;20719;-84
2023/02/10 11:15:30;;;;;;;34.30;27.57;;;4.80;67.30;;;;;;5038065;28;20212;-85
2023/02/10 11:17:58;;;;;;;33.93;27.73;;;5.00;62.40;;;;;;5038541;28;20203;-85
2023/02/10 11:20:25;;;;;;;37.07;30.40;;;5.10;63.60;;;;;;5040597;28;20182;-86
2023/02/10 11:23:14;;;;;;;40.10;28.40;;;5.30;63.70;;;;;;5039841;28;20644;-88
2023/02/10 11:25:40;;;;;;;35.33;27.13;;;5.40;61.90;;;;;;5041293;28;20662;-85
2023/02/10 11:28:20;;;;;;;37.80;27.73;;;5.40;62.50;;;;;;5039609;28;20188;-86
2023/02/10 11:30:53;;;;;;;34.20;27.47;;;5.50;62.70;;;;;;5024764;28;20229;-87
2023/02/10 11:33:26;;;;;;;33.33;28.60;;;5.90;60.20;;;;;;5019751;28;20726;-85
2023/02/10 11:36:04;;;;;;;32.07;27.90;;;6.10;59.50;;;;;;5023129;28;20547;-85
2023/02/10 11:38:31;;;;;;;34.30;28.27;;;6.20;59.70;;;;;;5014330;28;20184;-86
2023/02/10 11:41:01;;;;;;;33.43;28.03;;;6.40;58.00;;;;;;5015724;28;20256;-86
2023/02/10 11:43:46;;;;;;;33.17;26.20;;;6.20;59.80;;;;;;5026785;28;20185;-85
2023/02/10 11:46:18;;;;;;;33.50;27.27;;;6.50;57.10;;;;;;5022768;28;20193;-86
2023/02/10 11:49:02;;;;;;;33.87;26.53;;;6.70;55.90;;;;;;5028043;28;20271;-86
2023/02/10 11:51:29;;;;;;;34.83;27.10;;;6.80;56.40;;;;;;5029665;28;20237;-87
2023/02/10 11:53:56;;;;;;;31.40;26.13;;;6.80;56.10;;;;;;5027709;28;20201;-87
2023/02/10 11:59:30;;;;;;;33.33;26.90;;;7.10;54.50;;;;;;5028998;28;20211;-85
2023/02/10 12:02:25;;;;;;;31.17;25.87;;;7.10;54.80;;;;;;5018237;28;20196;-86
2023/02/10 12:05:07;;;;;;;31.00;26.40;;;7.30;54.00;;;;;;5016218;28;20615;-85
2023/02/10 12:07:58;;;;;;;31.53;26.03;;;7.50;53.60;;;;;;5017119;28;20212;-86
2023/02/10 12:10:48;;;;;;;29.87;25.23;;;7.60;52.40;;;;;;5016975;28;20169;-85
2023/02/10 12:13:40;;;;;;;32.53;26.77;;;7.90;52.50;;;;;;5017828;28;20289;-84
2023/02/10 12:16:12;;;;;;;32.40;27.37;;;7.70;52.10;;;;;;5027062;28;20204;-84
2023/02/10 12:18:59;;;;;;;32.70;26.70;;;7.90;51.70;;;;;;5023078;28;20189;-85
2023/02/10 12:21:34;;;;;;;29.97;24.57;;;7.60;51.40;;;;;;5023358;28;20874;-86
2023/02/10 12:24:23;;;;;;;31.37;27.83;;;7.60;50.00;;;;;;5021599;28;20184;-87
2023/02/10 12:26:58;;;;;;;32.07;27.17;;;7.80;50.80;;;;;;5023099;28;20491;-86
2023/02/10 12:29:32;;;;;;;29.93;25.90;;;7.50;51.40;;;;;;5017046;28;20168;-86
2023/02/10 12:32:21;;;;;;;32.20;27.00;;;7.40;50.30;;;;;;5016713;28;20209;-85
2023/02/10 12:34:52;;;;;;;30.57;26.17;;;7.20;50.60;;;;;;5017811;28;20185;-85
2023/02/10 12:37:36;;;;;;;28.57;25.27;;;7.10;52.10;;;;;;5019141;28;20229;-87
2023/02/10 12:40:05;;;;;;;32.57;27.23;;;7.70;50.80;;;;;;5019825;28;20207;-86
2023/02/10 12:43:01;;;;;;;29.87;26.00;;;8.00;48.90;;;;;;5024276;28;20282;-85
2023/02/10 12:45:50;;;;;;;31.30;26.83;;;8.20;50.10;;;;;;5020998;28;20518;-87
2023/02/10 12:48:15;;;;;;;32.53;25.50;;;8.50;48.30;;;;;;5023451;28;20169;-85
2023/02/10 12:50:57;;;;;;;31.00;27.17;;;8.90;47.60;;;;;;5023053;28;21576;-87
2023/02/10 12:53:28;;;;;;;31.40;26.47;;;8.90;47.30;;;;;;5026759;28;20205;-85
2023/02/10 12:56:08;;;;;;;29.70;26.37;;;9.30;45.90;;;;;;5024256;28;20241;-87
2023/02/10 12:58:41;;;;;;;29.97;26.77;;;8.90;47.00;;;;;;5021310;28;20177;-86